Time;durP1;ratioP1;P1;durP2;ratioP2;P2;SDS_P1;SDS_P2;PMS_P1;PMS_P2;Temp;Humidity;BMP_temperature;BMP_pressure;BME280_temperature;BME280_humidity;BME280_pressure;Samples;Min_cycle;Max_cycle;Signal;HPM_P1;HPM_P2
2022/10/28 00:00:06;;;;;;;45.95;22.50;;;;;;;;;;4976902;28;20066;-69
2022/10/28 00:02:32;;;;;;;42.00;21.60;;;;;;;;;;4979995;28;20580;-68
2022/10/28 00:04:58;;;;;;;50.60;21.85;;;;;;;;;;4980270;28;20027;-68
2022/10/28 00:07:24;;;;;;;41.72;23.15;;;;;;;;;;4979264;28;20081;-68
2022/10/28 00:09:50;;;;;;;51.78;23.27;;;;;;;;;;4978637;28;20034;-69
2022/10/28 00:12:16;;;;;;;53.70;24.38;;;;;;;;;;4977751;28;20076;-69
2022/10/28 00:14:43;;;;;;;48.03;23.45;;;;;;;;;;4976510;28;20397;-68
2022/10/28 00:17:09;;;;;;;48.15;23.05;;;;;;;;;;4985051;28;20496;-68
2022/10/28 00:19:35;;;;;;;49.58;24.45;;;;;;;;;;4980481;28;20054;-69
2022/10/28 00:22:01;;;;;;;47.83;23.45;;;;;;;;;;4978160;28;20066;-69
2022/10/28 00:24:27;;;;;;;45.45;24.48;;;;;;;;;;4985722;28;20069;-69
2022/10/28 00:26:53;;;;;;;48.35;24.45;;;;;;;;;;4966271;28;20033;-68
2022/10/28 00:29:19;;;;;;;43.53;22.27;;;;;;;;;;4981794;28;20034;-68
2022/10/28 00:31:46;;;;;;;37.17;21.33;;;;;;;;;;4983711;28;20083;-68
2022/10/28 00:34:13;;;;;;;47.63;23.83;;;;;;;;;;4979995;28;20038;-68
2022/10/28 00:36:41;;;;;;;43.33;21.50;;;;;;;;;;4990160;28;20607;-68
2022/10/28 00:39:11;;;;;;;47.38;24.25;;;;;;;;;;4987539;28;20034;-68
2022/10/28 00:41:38;;;;;;;53.65;24.73;;;;;;;;;;4971774;28;20037;-68
2022/10/28 00:44:22;;;;;;;48.97;24.35;;;;;;;;;;4984961;28;20489;-69
2022/10/28 00:46:50;;;;;;;45.90;24.83;;;;;;;;;;4995595;28;20038;-68
2022/10/28 00:49:17;;;;;;;48.42;25.42;;;;;;;;;;4987956;28;20033;-68
2022/10/28 00:51:45;;;;;;;52.83;24.63;;;;;;;;;;4986821;28;20568;-69
2022/10/28 00:54:11;;;;;;;44.17;24.20;;;;;;;;;;4969137;28;20046;-68
2022/10/28 00:56:40;;;;;;;51.40;25.40;;;;;;;;;;4987667;28;20035;-68
2022/10/28 00:59:08;;;;;;;50.60;26.40;;;;;;;;;;4982898;28;20039;-68
2022/10/28 01:01:34;;;;;;;50.47;25.20;;;;;;;;;;4987249;28;20030;-68
2022/10/28 01:04:00;;;;;;;50.88;25.52;;;;;;;;;;4967354;28;20054;-68
2022/10/28 01:06:26;;;;;;;46.63;25.67;;;;;;;;;;4985563;28;20478;-68
2022/10/28 01:08:52;;;;;;;47.47;25.83;;;;;;;;;;4988951;28;20037;-69
2022/10/28 01:11:18;;;;;;;51.10;26.02;;;;;;;;;;4988800;28;20319;-68
2022/10/28 01:14:03;;;;;;;51.47;24.58;;;;;;;;;;4990757;28;20497;-68
2022/10/28 01:16:32;;;;;;;46.80;24.65;;;;;;;;;;4989191;28;20030;-69
2022/10/28 01:19:18;;;;;;;50.17;26.65;;;;;;;;;;4964920;28;20023;-68
2022/10/28 01:21:50;;;;;;;43.95;26.33;;;;;;;;;;4984280;28;20527;-68
2022/10/28 01:24:25;;;;;;;53.97;27.35;;;;;;;;;;4984094;28;20519;-69
2022/10/28 01:26:51;;;;;;;50.92;27.17;;;;;;;;;;4987458;28;20108;-69
2022/10/28 01:29:41;;;;;;;47.70;26.60;;;;;;;;;;4981993;28;20034;-69
2022/10/28 01:32:22;;;;;;;46.53;26.10;;;;;;;;;;4950155;28;20055;-69
2022/10/28 01:35:07;;;;;;;46.15;25.88;;;;;;;;;;4983103;28;20567;-68
2022/10/28 01:37:40;;;;;;;50.15;24.35;;;;;;;;;;4986007;28;20038;-68
2022/10/28 01:40:06;;;;;;;47.95;24.20;;;;;;;;;;4970251;28;20512;-68
2022/10/28 01:42:38;;;;;;;47.63;25.25;;;;;;;;;;4982802;28;20022;-69
2022/10/28 01:45:06;;;;;;;49.53;26.75;;;;;;;;;;4976677;28;20053;-68
2022/10/28 01:47:56;;;;;;;50.28;26.70;;;;;;;;;;4986371;28;20034;-69
2022/10/28 01:50:32;;;;;;;47.58;25.63;;;;;;;;;;4969614;28;20666;-68
2022/10/28 01:53:02;;;;;;;52.88;26.95;;;;;;;;;;4982600;28;20030;-69
2022/10/28 01:55:48;;;;;;;45.80;25.00;;;;;;;;;;4958218;28;20034;-68
2022/10/28 01:58:17;;;;;;;52.72;26.98;;;;;;;;;;4984067;28;20022;-69
2022/10/28 02:00:43;;;;;;;55.97;28.75;;;;;;;;;;4987482;28;20042;-68
2022/10/28 02:03:10;;;;;;;50.58;28.02;;;;;;;;;;4971134;28;20037;-69
2022/10/28 02:05:46;;;;;;;60.85;28.20;;;;;;;;;;4984870;28;20051;-69
2022/10/28 02:08:14;;;;;;;51.80;27.48;;;;;;;;;;4986441;28;20077;-69
2022/10/28 02:10:44;;;;;;;47.83;26.90;;;;;;;;;;4986071;28;20042;-69
2022/10/28 02:13:13;;;;;;;52.00;26.48;;;;;;;;;;4983020;28;20484;-69
2022/10/28 02:15:46;;;;;;;55.30;26.33;;;;;;;;;;4984463;28;20552;-69
2022/10/28 02:18:19;;;;;;;59.83;26.95;;;;;;;;;;4982682;28;20873;-69
2022/10/28 02:21:03;;;;;;;52.78;26.83;;;;;;;;;;4985180;28;20030;-69
2022/10/28 02:23:29;;;;;;;57.97;27.42;;;;;;;;;;4982608;28;20505;-69
2022/10/28 02:26:06;;;;;;;51.65;26.70;;;;;;;;;;4985984;28;20065;-68
2022/10/28 02:28:46;;;;;;;49.65;26.35;;;;;;;;;;4980804;28;20919;-69
2022/10/28 02:31:20;;;;;;;54.72;28.65;;;;;;;;;;4989214;28;20444;-69
2022/10/28 02:33:50;;;;;;;59.97;27.63;;;;;;;;;;4986517;28;20454;-69
2022/10/28 02:36:16;;;;;;;58.38;28.48;;;;;;;;;;4989138;28;20036;-68
2022/10/28 02:38:47;;;;;;;65.90;28.88;;;;;;;;;;4991087;28;20034;-69
2022/10/28 02:41:18;;;;;;;52.85;27.83;;;;;;;;;;4985343;28;20046;-68
2022/10/28 02:43:45;;;;;;;52.42;27.25;;;;;;;;;;4985130;28;20126;-69
2022/10/28 02:46:13;;;;;;;49.92;27.10;;;;;;;;;;4961424;28;20053;-68
2022/10/28 02:48:44;;;;;;;50.08;25.88;;;;;;;;;;4985114;28;20088;-69
2022/10/28 02:51:13;;;;;;;54.80;26.30;;;;;;;;;;4985640;28;20065;-69
2022/10/28 02:53:45;;;;;;;45.35;24.83;;;;;;;;;;4980379;28;20078;-69
2022/10/28 02:56:12;;;;;;;50.65;26.00;;;;;;;;;;4988835;28;20053;-69
2022/10/28 02:58:41;;;;;;;57.05;25.60;;;;;;;;;;4983398;28;20042;-69
2022/10/28 03:01:07;;;;;;;48.85;25.77;;;;;;;;;;4956716;28;20042;-69
2022/10/28 03:03:33;;;;;;;51.05;26.45;;;;;;;;;;4964414;28;20031;-69
2022/10/28 03:05:59;;;;;;;51.53;25.45;;;;;;;;;;4960114;28;20564;-70
2022/10/28 03:08:25;;;;;;;55.25;25.92;;;;;;;;;;4948384;28;20038;-70
2022/10/28 03:10:51;;;;;;;58.90;27.45;;;;;;;;;;4964710;28;20075;-69
2022/10/28 03:13:17;;;;;;;55.40;26.75;;;;;;;;;;4965392;28;20517;-69
2022/10/28 03:15:43;;;;;;;48.53;26.50;;;;;;;;;;4935230;28;20178;-69
2022/10/28 03:18:09;;;;;;;47.88;24.27;;;;;;;;;;4965683;28;20043;-69
2022/10/28 03:20:35;;;;;;;48.50;26.35;;;;;;;;;;4961803;28;20042;-69
2022/10/28 03:23:01;;;;;;;44.75;24.75;;;;;;;;;;4965380;28;20511;-69
2022/10/28 03:25:27;;;;;;;47.13;24.90;;;;;;;;;;4967384;28;20039;-69
2022/10/28 03:27:53;;;;;;;43.22;23.67;;;;;;;;;;4964765;28;20062;-69
2022/10/28 03:30:19;;;;;;;45.97;24.65;;;;;;;;;;4965300;28;20046;-68
2022/10/28 03:32:45;;;;;;;54.58;25.42;;;;;;;;;;4966938;28;20505;-70
2022/10/28 03:35:11;;;;;;;56.25;25.42;;;;;;;;;;4962143;28;20047;-69
2022/10/28 03:37:40;;;;;;;52.58;24.15;;;;;;;;;;4963589;28;20027;-70
2022/10/28 03:40:06;;;;;;;56.33;25.42;;;;;;;;;;4966072;28;20066;-69
2022/10/28 03:42:33;;;;;;;40.83;24.27;;;;;;;;;;4962206;28;20031;-70
2022/10/28 03:44:59;;;;;;;53.25;25.08;;;;;;;;;;4966654;28;20130;-70
2022/10/28 03:47:25;;;;;;;62.13;24.95;;;;;;;;;;4963873;28;20187;-70
2022/10/28 03:49:51;;;;;;;48.08;24.52;;;;;;;;;;4951347;28;20038;-70
2022/10/28 03:52:17;;;;;;;49.90;24.45;;;;;;;;;;4949189;28;20030;-69
2022/10/28 03:54:43;;;;;;;51.17;25.15;;;;;;;;;;4962105;28;20081;-70
2022/10/28 03:57:09;;;;;;;48.35;24.38;;;;;;;;;;4961676;28;20066;-69
2022/10/28 03:59:35;;;;;;;43.60;23.30;;;;;;;;;;4962611;28;20387;-69
2022/10/28 04:02:01;;;;;;;48.13;24.55;;;;;;;;;;4984128;28;20267;-70
2022/10/28 04:04:27;;;;;;;44.25;22.77;;;;;;;;;;4984670;28;20469;-70
2022/10/28 04:06:53;;;;;;;44.33;24.00;;;;;;;;;;4966650;28;20612;-70
2022/10/28 04:09:19;;;;;;;42.63;23.55;;;;;;;;;;4965895;28;20105;-69
2022/10/28 04:11:48;;;;;;;47.42;23.27;;;;;;;;;;4982571;28;20493;-69
2022/10/28 04:14:14;;;;;;;48.33;23.60;;;;;;;;;;4984290;28;20471;-70
2022/10/28 04:16:40;;;;;;;51.97;24.08;;;;;;;;;;4986117;28;20035;-69
2022/10/28 04:19:06;;;;;;;48.00;23.55;;;;;;;;;;4976820;28;20035;-70
2022/10/28 04:21:32;;;;;;;44.17;22.88;;;;;;;;;;4981701;28;20026;-69
2022/10/28 04:23:58;;;;;;;44.97;24.00;;;;;;;;;;4984199;28;20548;-70
2022/10/28 04:26:24;;;;;;;45.58;24.02;;;;;;;;;;4976047;28;20035;-69
2022/10/28 04:28:50;;;;;;;48.25;25.67;;;;;;;;;;4969755;28;20378;-70
2022/10/28 04:31:16;;;;;;;53.63;25.30;;;;;;;;;;4975438;28;20034;-69
2022/10/28 04:33:42;;;;;;;46.97;24.45;;;;;;;;;;4979863;28;20038;-69
2022/10/28 04:36:08;;;;;;;47.53;23.73;;;;;;;;;;4982039;28;20501;-70
2022/10/28 04:38:34;;;;;;;42.75;23.25;;;;;;;;;;4982524;28;20129;-70
2022/10/28 04:41:00;;;;;;;48.65;24.50;;;;;;;;;;4983455;28;20120;-69
2022/10/28 04:43:26;;;;;;;52.85;23.98;;;;;;;;;;4981664;28;20030;-69
2022/10/28 04:45:52;;;;;;;53.85;25.23;;;;;;;;;;4964674;28;21580;-69
2022/10/28 04:48:18;;;;;;;57.17;24.90;;;;;;;;;;4967306;28;20061;-69
2022/10/28 04:50:45;;;;;;;43.97;23.45;;;;;;;;;;4981348;28;20038;-69
2022/10/28 04:53:11;;;;;;;53.28;24.85;;;;;;;;;;4985945;28;20038;-70
2022/10/28 04:55:37;;;;;;;53.67;24.52;;;;;;;;;;4983896;28;20089;-69
2022/10/28 04:58:04;;;;;;;48.15;24.35;;;;;;;;;;4983317;28;20074;-69
2022/10/28 05:00:30;;;;;;;52.13;25.25;;;;;;;;;;4980928;28;20053;-70
2022/10/28 05:02:56;;;;;;;53.70;24.80;;;;;;;;;;4981183;28;20363;-70
2022/10/28 05:05:22;;;;;;;51.05;24.63;;;;;;;;;;4962754;28;20105;-69
2022/10/28 05:07:48;;;;;;;59.45;23.75;;;;;;;;;;4986733;28;20144;-69
2022/10/28 05:10:15;;;;;;;50.63;26.02;;;;;;;;;;4986593;28;20081;-70
2022/10/28 05:12:41;;;;;;;57.33;25.88;;;;;;;;;;4983214;28;20510;-70
2022/10/28 05:15:08;;;;;;;48.67;25.10;;;;;;;;;;4985266;28;20659;-69
2022/10/28 05:17:34;;;;;;;50.35;25.67;;;;;;;;;;4979682;28;20135;-70
2022/10/28 05:20:00;;;;;;;49.20;25.02;;;;;;;;;;4982094;28;20073;-70
2022/10/28 05:22:26;;;;;;;47.53;24.38;;;;;;;;;;4966612;28;20042;-69
2022/10/28 05:24:52;;;;;;;50.95;24.13;;;;;;;;;;4984870;28;20030;-69
2022/10/28 05:27:18;;;;;;;51.22;24.52;;;;;;;;;;4971496;28;20104;-69
2022/10/28 05:29:44;;;;;;;45.88;23.48;;;;;;;;;;4965565;28;20038;-70
2022/10/28 05:32:10;;;;;;;44.70;23.33;;;;;;;;;;4988610;28;20469;-70
2022/10/28 05:34:36;;;;;;;49.58;22.45;;;;;;;;;;4982907;28;20030;-69
2022/10/28 05:37:02;;;;;;;52.45;24.15;;;;;;;;;;4981723;28;20106;-69
2022/10/28 05:39:28;;;;;;;51.03;23.77;;;;;;;;;;4982144;28;20485;-69
2022/10/28 05:41:54;;;;;;;57.17;24.10;;;;;;;;;;4965101;28;20042;-69
2022/10/28 05:44:20;;;;;;;52.75;23.80;;;;;;;;;;4982728;28;20085;-69
2022/10/28 05:46:46;;;;;;;52.00;24.13;;;;;;;;;;4981769;28;20035;-70
2022/10/28 05:49:12;;;;;;;51.78;23.75;;;;;;;;;;4981189;28;20397;-70
2022/10/28 05:51:38;;;;;;;51.88;22.35;;;;;;;;;;4979216;28;20496;-70
2022/10/28 05:54:04;;;;;;;49.72;23.38;;;;;;;;;;4964087;28;20034;-70
2022/10/28 05:56:30;;;;;;;48.10;22.73;;;;;;;;;;4987152;28;20031;-69
2022/10/28 05:58:56;;;;;;;52.13;23.25;;;;;;;;;;4982675;28;20042;-69
2022/10/28 06:01:22;;;;;;;56.00;23.55;;;;;;;;;;4984256;28;20050;-69
2022/10/28 06:03:48;;;;;;;49.17;22.67;;;;;;;;;;4981262;28;20026;-70
2022/10/28 06:06:14;;;;;;;45.78;22.33;;;;;;;;;;4964313;28;20393;-69
2022/10/28 06:08:40;;;;;;;47.55;21.58;;;;;;;;;;4985499;28;20030;-70
2022/10/28 06:11:06;;;;;;;44.00;22.98;;;;;;;;;;4979188;28;20549;-70
2022/10/28 06:13:32;;;;;;;48.80;22.40;;;;;;;;;;4981162;28;20524;-70
2022/10/28 06:15:58;;;;;;;49.55;21.58;;;;;;;;;;4984927;28;20042;-70
2022/10/28 06:18:24;;;;;;;46.80;21.00;;;;;;;;;;4988433;28;20272;-70
2022/10/28 06:20:51;;;;;;;48.80;21.30;;;;;;;;;;4968766;28;20081;-70
2022/10/28 06:23:18;;;;;;;48.58;20.60;;;;;;;;;;4981095;28;20034;-71
2022/10/28 06:25:44;;;;;;;53.40;22.27;;;;;;;;;;4981596;28;20177;-71
2022/10/28 06:28:10;;;;;;;44.47;21.52;;;;;;;;;;4980300;28;20499;-70
2022/10/28 06:30:36;;;;;;;43.08;20.27;;;;;;;;;;4983483;28;20042;-70
2022/10/28 06:33:02;;;;;;;44.83;21.17;;;;;;;;;;4980308;28;20036;-71
2022/10/28 06:35:28;;;;;;;47.50;21.77;;;;;;;;;;4983307;28;20066;-71
2022/10/28 06:37:57;;;;;;;54.08;21.23;;;;;;;;;;4984362;28;20072;-71
2022/10/28 06:40:24;;;;;;;49.58;21.15;;;;;;;;;;4984297;28;20526;-71
2022/10/28 06:42:57;;;;;;;44.33;20.95;;;;;;;;;;4985808;28;20516;-71
2022/10/28 06:45:23;;;;;;;40.78;18.83;;;;;;;;;;4991993;28;20123;-71
2022/10/28 06:47:49;;;;;;;44.90;19.85;;;;;;;;;;4982886;28;20065;-71
2022/10/28 06:50:15;;;;;;;43.72;19.85;;;;;;;;;;4982811;28;20041;-71
2022/10/28 06:52:42;;;;;;;48.10;20.73;;;;;;;;;;4987048;28;20505;-71
2022/10/28 06:55:08;;;;;;;44.25;20.33;;;;;;;;;;4981224;28;20509;-71
2022/10/28 06:57:34;;;;;;;43.97;20.55;;;;;;;;;;4975580;28;20042;-70
2022/10/28 07:00:00;;;;;;;39.45;19.48;;;;;;;;;;4977467;28;20058;-70
2022/10/28 07:02:26;;;;;;;45.10;20.15;;;;;;;;;;4980091;28;20041;-71
2022/10/28 07:04:52;;;;;;;39.35;20.48;;;;;;;;;;4980451;28;20065;-71
2022/10/28 07:07:18;;;;;;;40.33;18.63;;;;;;;;;;4963764;28;20037;-70
2022/10/28 07:09:44;;;;;;;45.03;18.13;;;;;;;;;;4977843;28;20567;-70
2022/10/28 07:12:10;;;;;;;40.33;16.77;;;;;;;;;;4980786;28;20030;-70
2022/10/28 07:14:36;;;;;;;46.08;17.80;;;;;;;;;;4967359;28;20033;-70
2022/10/28 07:17:02;;;;;;;42.90;16.95;;;;;;;;;;4981089;28;20041;-70
2022/10/28 07:19:28;;;;;;;34.58;16.30;;;;;;;;;;4984232;28;20046;-71
2022/10/28 07:21:54;;;;;;;28.95;15.65;;;;;;;;;;4986911;28;20109;-70
2022/10/28 07:24:20;;;;;;;26.55;16.17;;;;;;;;;;4963872;28;20113;-70
2022/10/28 07:26:49;;;;;;;40.00;17.20;;;;;;;;;;4966226;28;20492;-70
2022/10/28 07:29:15;;;;;;;33.15;15.48;;;;;;;;;;4980231;28;20042;-70
2022/10/28 07:31:42;;;;;;;34.95;15.32;;;;;;;;;;4980465;28;20057;-70
2022/10/28 07:34:08;;;;;;;38.17;14.85;;;;;;;;;;4983385;28;20030;-70
2022/10/28 07:36:34;;;;;;;30.42;13.90;;;;;;;;;;4980410;28;20488;-70
2022/10/28 07:39:00;;;;;;;28.65;13.35;;;;;;;;;;4981093;28;20038;-70
2022/10/28 07:41:26;;;;;;;29.50;13.35;;;;;;;;;;4982591;28;20031;-70
2022/10/28 07:43:52;;;;;;;31.33;12.80;;;;;;;;;;4984473;28;20053;-70
2022/10/28 07:46:19;;;;;;;23.75;10.55;;;;;;;;;;4984811;28;20087;-70
2022/10/28 07:48:45;;;;;;;31.40;12.27;;;;;;;;;;4980551;28;20493;-69
2022/10/28 07:51:12;;;;;;;22.02;10.73;;;;;;;;;;4985701;28;20030;-70
2022/10/28 07:53:38;;;;;;;23.40;10.52;;;;;;;;;;4977270;28;20129;-69
2022/10/28 07:56:08;;;;;;;24.08;10.00;;;;;;;;;;4980885;28;20034;-70
2022/10/28 07:58:34;;;;;;;23.40;8.73;;;;;;;;;;4984676;28;20065;-69
2022/10/28 08:01:04;;;;;;;24.08;9.98;;;;;;;;;;4979127;28;20809;-70
2022/10/28 08:03:30;;;;;;;26.60;9.98;;;;;;;;;;4962435;28;20520;-69
2022/10/28 08:06:00;;;;;;;28.75;9.98;;;;;;;;;;4987320;28;20026;-69
2022/10/28 08:08:26;;;;;;;27.80;10.70;;;;;;;;;;4978665;28;20034;-69
2022/10/28 08:10:52;;;;;;;24.08;9.35;;;;;;;;;;4984306;28;21060;-69
2022/10/28 08:13:18;;;;;;;26.77;10.05;;;;;;;;;;4964832;28;20042;-69
2022/10/28 08:15:50;;;;;;;23.05;8.93;;;;;;;;;;4967174;28;20045;-69
2022/10/28 08:18:16;;;;;;;25.40;9.70;;;;;;;;;;4981605;28;20370;-69
2022/10/28 08:20:42;;;;;;;26.10;8.95;;;;;;;;;;4980688;28;20136;-68
2022/10/28 08:23:08;;;;;;;22.40;8.73;;;;;;;;;;4959483;28;20031;-68
2022/10/28 08:25:34;;;;;;;18.88;8.07;;;;;;;;;;4978704;28;20070;-68
2022/10/28 08:28:00;;;;;;;21.13;8.20;;;;;;;;;;4983303;28;20043;-68
2022/10/28 08:30:27;;;;;;;22.63;8.30;;;;;;;;;;4982672;28;20035;-69
2022/10/28 08:32:56;;;;;;;23.25;8.43;;;;;;;;;;4986053;28;20038;-69
2022/10/28 08:35:22;;;;;;;19.73;7.60;;;;;;;;;;4985546;28;20450;-69
2022/10/28 08:37:51;;;;;;;28.48;9.35;;;;;;;;;;4983014;28;20054;-69
2022/10/28 08:40:19;;;;;;;17.00;7.75;;;;;;;;;;4975157;28;20034;-68
2022/10/28 08:42:52;;;;;;;27.02;10.38;;;;;;;;;;4992262;28;20804;-69
2022/10/28 08:45:42;;;;;;;21.98;8.55;;;;;;;;;;4982844;28;20353;-69
2022/10/28 08:48:17;;;;;;;25.08;7.90;;;;;;;;;;4983178;28;20036;-69
2022/10/28 08:50:47;;;;;;;24.75;8.45;;;;;;;;;;4986975;28;20104;-69
2022/10/28 08:53:16;;;;;;;18.83;8.85;;;;;;;;;;4984014;28;20035;-69
2022/10/28 08:55:45;;;;;;;30.60;8.10;;;;;;;;;;4980456;28;20186;-69
2022/10/28 08:58:12;;;;;;;23.10;7.63;;;;;;;;;;4982866;28;20562;-69
2022/10/28 09:00:39;;;;;;;27.70;7.85;;;;;;;;;;4982136;28;20125;-69
2022/10/28 09:03:08;;;;;;;26.15;8.30;;;;;;;;;;4985252;28;20045;-69
2022/10/28 09:05:34;;;;;;;24.05;7.97;;;;;;;;;;4983357;28;20045;-69
2022/10/28 09:08:01;;;;;;;23.38;8.32;;;;;;;;;;4983124;28;20038;-69
2022/10/28 09:10:41;;;;;;;28.65;8.35;;;;;;;;;;4983621;28;20054;-69
2022/10/28 09:13:30;;;;;;;24.73;9.20;;;;;;;;;;4986667;28;20038;-69
2022/10/28 09:16:03;;;;;;;20.08;7.82;;;;;;;;;;4955193;28;20038;-69
2022/10/28 09:18:51;;;;;;;21.42;7.95;;;;;;;;;;4979431;28;20061;-69
2022/10/28 09:21:39;;;;;;;20.77;7.65;;;;;;;;;;4983575;28;20110;-69
2022/10/28 09:24:12;;;;;;;29.30;8.75;;;;;;;;;;4988413;28;20156;-69
2022/10/28 09:26:49;;;;;;;27.27;8.25;;;;;;;;;;4984739;28;20035;-69
2022/10/28 09:29:15;;;;;;;20.10;7.60;;;;;;;;;;4988003;28;20038;-69
2022/10/28 09:31:49;;;;;;;23.58;9.32;;;;;;;;;;4983913;28;20038;-69
2022/10/28 09:34:18;;;;;;;22.80;8.20;;;;;;;;;;4983952;28;20039;-69
2022/10/28 09:36:51;;;;;;;21.42;7.72;;;;;;;;;;4981212;28;20030;-69
2022/10/28 09:39:19;;;;;;;23.67;8.25;;;;;;;;;;4987887;28;20200;-69
2022/10/28 09:41:47;;;;;;;21.70;7.97;;;;;;;;;;4986574;28;20030;-69
2022/10/28 09:44:20;;;;;;;26.23;8.27;;;;;;;;;;4986277;28;20445;-69
2022/10/28 09:46:48;;;;;;;27.15;8.20;;;;;;;;;;4983733;28;20151;-69
2022/10/28 09:49:27;;;;;;;25.25;8.05;;;;;;;;;;4983321;28;20076;-69
2022/10/28 09:52:09;;;;;;;22.60;8.65;;;;;;;;;;4986831;28;20399;-69
2022/10/28 09:54:40;;;;;;;22.73;9.10;;;;;;;;;;4981604;28;20489;-69
2022/10/28 09:57:07;;;;;;;28.63;8.82;;;;;;;;;;4984385;28;20034;-69
2022/10/28 09:59:33;;;;;;;19.48;8.30;;;;;;;;;;4984234;28;20821;-69
2022/10/28 10:01:59;;;;;;;22.40;8.15;;;;;;;;;;4987897;28;20030;-69
2022/10/28 10:04:26;;;;;;;24.25;8.70;;;;;;;;;;4987244;28;20029;-69
2022/10/28 10:06:56;;;;;;;25.75;7.93;;;;;;;;;;4982352;28;20490;-69
2022/10/28 10:09:29;;;;;;;19.45;7.40;;;;;;;;;;4984395;28;20035;-69
2022/10/28 10:11:59;;;;;;;22.67;7.75;;;;;;;;;;4988784;28;20033;-69
2022/10/28 10:14:28;;;;;;;26.90;8.35;;;;;;;;;;4985030;28;20489;-69
2022/10/28 10:17:04;;;;;;;30.45;8.70;;;;;;;;;;4988009;28;20409;-69
2022/10/28 10:19:50;;;;;;;27.92;7.68;;;;;;;;;;4988018;28;20053;-69
2022/10/28 10:22:29;;;;;;;28.67;8.50;;;;;;;;;;4984844;28;20048;-69
2022/10/28 10:24:55;;;;;;;18.33;7.40;;;;;;;;;;4982943;28;20396;-70
2022/10/28 10:27:21;;;;;;;22.40;7.55;;;;;;;;;;4985680;28;20038;-70
2022/10/28 10:29:48;;;;;;;27.05;8.23;;;;;;;;;;4989218;28;20493;-70
2022/10/28 10:32:17;;;;;;;23.25;8.63;;;;;;;;;;4970417;28;20084;-69
2022/10/28 10:34:56;;;;;;;25.20;7.15;;;;;;;;;;4994111;28;20033;-70
2022/10/28 10:37:23;;;;;;;22.60;7.75;;;;;;;;;;4980337;28;20576;-71
2022/10/28 10:39:58;;;;;;;25.95;7.15;;;;;;;;;;4967619;28;20046;-70
2022/10/28 10:42:26;;;;;;;19.65;7.05;;;;;;;;;;4986548;28;20134;-70
2022/10/28 10:45:10;;;;;;;23.45;7.47;;;;;;;;;;4983890;28;20038;-70
2022/10/28 10:47:36;;;;;;;22.15;7.07;;;;;;;;;;4983436;28;20042;-70
2022/10/28 10:50:17;;;;;;;18.77;5.97;;;;;;;;;;4966403;28;20054;-70
2022/10/28 10:52:48;;;;;;;25.83;6.90;;;;;;;;;;4979516;28;20019;-71
2022/10/28 10:55:20;;;;;;;20.23;6.22;;;;;;;;;;4981335;28;20629;-70
2022/10/28 10:57:47;;;;;;;23.27;6.88;;;;;;;;;;4979044;28;20087;-70
2022/10/28 11:00:17;;;;;;;22.92;7.18;;;;;;;;;;4980124;28;20995;-71
2022/10/28 11:02:45;;;;;;;20.95;6.57;;;;;;;;;;4980389;28;20033;-71
2022/10/28 11:05:11;;;;;;;19.13;5.70;;;;;;;;;;4983056;28;20530;-70
2022/10/28 11:07:39;;;;;;;23.75;6.20;;;;;;;;;;4982651;28;20093;-70
2022/10/28 11:10:06;;;;;;;30.55;6.40;;;;;;;;;;4956706;28;20030;-70
2022/10/28 11:12:37;;;;;;;22.35;6.60;;;;;;;;;;4980814;28;20488;-71
2022/10/28 11:15:24;;;;;;;25.90;6.38;;;;;;;;;;4982130;28;20046;-70
2022/10/28 11:18:13;;;;;;;23.88;6.95;;;;;;;;;;4981698;28;20062;-70
2022/10/28 11:20:42;;;;;;;18.05;6.03;;;;;;;;;;4978195;28;20046;-71
2022/10/28 11:23:17;;;;;;;28.65;6.85;;;;;;;;;;4988583;28;20115;-70
2022/10/28 11:25:45;;;;;;;20.83;6.32;;;;;;;;;;4973604;28;20489;-70
2022/10/28 11:28:24;;;;;;;22.70;6.32;;;;;;;;;;4990011;28;20045;-69
2022/10/28 11:31:01;;;;;;;20.83;6.18;;;;;;;;;;4985178;28;20034;-69
2022/10/28 11:33:33;;;;;;;26.45;6.30;;;;;;;;;;4981441;28;20033;-70
2022/10/28 11:36:08;;;;;;;24.02;6.95;;;;;;;;;;4979828;28;20065;-69
2022/10/28 11:38:53;;;;;;;27.27;7.35;;;;;;;;;;4979324;28;20085;-72
2022/10/28 11:41:32;;;;;;;25.60;6.30;;;;;;;;;;4979549;28;20039;-70
2022/10/28 11:43:59;;;;;;;23.58;6.50;;;;;;;;;;4982928;28;20117;-69
2022/10/28 11:46:36;;;;;;;27.40;6.55;;;;;;;;;;4980388;28;20762;-70
2022/10/28 11:49:21;;;;;;;24.10;6.57;;;;;;;;;;4980114;28;20089;-72
2022/10/28 11:51:47;;;;;;;24.10;5.55;;;;;;;;;;4977874;28;20030;-68
2022/10/28 11:54:24;;;;;;;24.98;6.72;;;;;;;;;;4979088;28;20393;-71
2022/10/28 11:57:00;;;;;;;25.02;5.75;;;;;;;;;;4978847;28;20034;-71
2022/10/28 11:59:44;;;;;;;18.75;6.40;;;;;;;;;;4983983;28;20057;-71
2022/10/28 12:02:38;;;;;;;27.20;6.10;;;;;;;;;;4979154;28;20121;-70
2022/10/28 12:05:04;;;;;;;21.33;6.32;;;;;;;;;;4981792;28;20034;-69
2022/10/28 12:07:47;;;;;;;25.05;6.90;;;;;;;;;;4980955;28;20519;-69
2022/10/28 12:10:16;;;;;;;24.58;7.13;;;;;;;;;;4977696;28;20041;-70
2022/10/28 12:12:53;;;;;;;20.02;6.88;;;;;;;;;;4977075;28;20080;-69
2022/10/28 12:15:40;;;;;;;28.80;6.65;;;;;;;;;;4978789;28;20022;-70
2022/10/28 12:18:11;;;;;;;24.95;6.10;;;;;;;;;;4983432;28;20070;-69
2022/10/28 12:20:37;;;;;;;22.20;5.80;;;;;;;;;;4978410;28;20118;-69
2022/10/28 12:23:16;;;;;;;22.33;6.20;;;;;;;;;;4980527;28;20057;-69
2022/10/28 12:25:44;;;;;;;27.63;7.22;;;;;;;;;;4979728;28;20030;-69
2022/10/28 12:28:16;;;;;;;25.30;6.45;;;;;;;;;;4982215;28;20049;-69
2022/10/28 12:30:42;;;;;;;24.13;6.88;;;;;;;;;;4979669;28;20489;-71
2022/10/28 12:33:14;;;;;;;25.30;8.32;;;;;;;;;;4985295;28;20065;-70
2022/10/28 12:35:53;;;;;;;19.70;6.88;;;;;;;;;;4985021;28;20034;-70
2022/10/28 12:38:29;;;;;;;29.88;6.95;;;;;;;;;;4984949;28;20053;-70
2022/10/28 12:41:02;;;;;;;21.08;6.57;;;;;;;;;;4984760;28;20074;-70
2022/10/28 12:43:32;;;;;;;26.73;6.70;;;;;;;;;;4984250;28;20032;-70
2022/10/28 12:45:58;;;;;;;22.02;6.80;;;;;;;;;;4986579;28;20023;-72
2022/10/28 12:48:35;;;;;;;30.98;7.13;;;;;;;;;;4980827;28;20049;-70
2022/10/28 12:51:13;;;;;;;23.42;6.00;;;;;;;;;;4986890;28;20049;-71
2022/10/28 12:53:43;;;;;;;28.10;6.80;;;;;;;;;;4987013;28;20030;-70
2022/10/28 12:56:19;;;;;;;32.38;8.07;;;;;;;;;;4986092;28;20038;-69
2022/10/28 12:58:52;;;;;;;29.73;7.47;;;;;;;;;;4983157;28;20053;-69
2022/10/28 13:01:19;;;;;;;23.45;6.50;;;;;;;;;;4990270;28;20572;-69
2022/10/28 13:03:45;;;;;;;25.88;6.25;;;;;;;;;;4981457;28;20026;-70
2022/10/28 13:06:12;;;;;;;29.63;6.72;;;;;;;;;;4970143;28;20048;-70
2022/10/28 13:08:57;;;;;;;22.33;6.35;;;;;;;;;;4988226;28;20030;-70
2022/10/28 13:11:38;;;;;;;21.65;6.28;;;;;;;;;;4987512;28;20034;-69
2022/10/28 13:14:13;;;;;;;25.92;6.47;;;;;;;;;;4987355;28;20027;-69
2022/10/28 13:16:41;;;;;;;25.13;6.45;;;;;;;;;;4989180;28;20114;-69
2022/10/28 13:19:26;;;;;;;26.35;6.50;;;;;;;;;;4984638;28;20121;-69
2022/10/28 13:22:11;;;;;;;24.38;6.50;;;;;;;;;;4989883;28;20048;-69
2022/10/28 13:24:37;;;;;;;25.77;6.15;;;;;;;;;;4986848;28;20540;-69
2022/10/28 13:27:03;;;;;;;18.17;5.72;;;;;;;;;;4987879;28;20157;-69
2022/10/28 13:29:31;;;;;;;25.90;6.18;;;;;;;;;;4965084;28;20057;-69
2022/10/28 13:31:57;;;;;;;18.15;6.30;;;;;;;;;;4981958;28;20069;-69
2022/10/28 13:34:34;;;;;;;23.45;7.15;;;;;;;;;;4956899;28;20513;-69
2022/10/28 13:37:02;;;;;;;30.30;6.75;;;;;;;;;;4986507;28;20129;-70
2022/10/28 13:39:28;;;;;;;19.95;6.20;;;;;;;;;;4987660;28;20092;-69
2022/10/28 13:42:12;;;;;;;22.02;5.78;;;;;;;;;;4985268;28;20026;-69
2022/10/28 13:44:54;;;;;;;25.45;7.43;;;;;;;;;;4983826;28;20097;-69
2022/10/28 13:47:36;;;;;;;27.77;6.45;;;;;;;;;;4984827;28;20100;-69
2022/10/28 13:50:05;;;;;;;25.85;6.35;;;;;;;;;;4981676;28;20131;-69
2022/10/28 13:52:35;;;;;;;22.75;6.43;;;;;;;;;;4987008;28;20038;-70
2022/10/28 13:55:13;;;;;;;25.35;6.85;;;;;;;;;;4973217;28;20085;-69
2022/10/28 13:57:42;;;;;;;20.15;6.43;;;;;;;;;;4982836;28;20129;-69
2022/10/28 14:00:09;;;;;;;35.15;7.43;;;;;;;;;;4989418;28;20587;-70
2022/10/28 14:02:48;;;;;;;22.25;6.72;;;;;;;;;;4968124;28;20018;-69
2022/10/28 14:05:19;;;;;;;23.85;6.25;;;;;;;;;;4991472;28;20034;-70
2022/10/28 14:07:54;;;;;;;25.88;6.85;;;;;;;;;;4984938;28;20030;-69
2022/10/28 14:10:25;;;;;;;29.35;6.72;;;;;;;;;;4985514;28;20209;-69
2022/10/28 14:12:51;;;;;;;;;;;;;;;;;;4983613;28;20549;-70
2022/10/28 14:15:19;;;;;;;28.58;6.55;;;;;;;;;;4981551;28;19924;-70
2022/10/28 14:17:50;;;;;;;23.58;7.18;;;;;;;;;;4979627;28;20028;-70
2022/10/28 14:20:22;;;;;;;29.17;6.53;;;;;;;;;;4984139;28;20103;-70
2022/10/28 14:22:49;;;;;;;20.70;6.40;;;;;;;;;;4982600;28;20037;-69
2022/10/28 14:25:34;;;;;;;20.63;6.45;;;;;;;;;;4985420;28;20184;-69
2022/10/28 14:28:00;;;;;;;20.92;6.38;;;;;;;;;;4981526;28;20049;-69
2022/10/28 14:30:26;;;;;;;31.42;7.03;;;;;;;;;;4991049;28;20038;-69
2022/10/28 14:33:01;;;;;;;22.10;6.60;;;;;;;;;;4982133;28;20049;-69
2022/10/28 14:35:48;;;;;;;26.65;6.68;;;;;;;;;;4986627;28;20165;-69
2022/10/28 14:38:43;;;;;;;23.45;6.55;;;;;;;;;;4981008;28;20026;-69